메인 페이지
METAR-TAF:

METAR-TAF

공항 :

멜버른, 플로리다, 미국

위도: 28-06-10N, 경도: 080-38-45W, 고도: 10m

현재 날씨관측

예보는 25분 전, 19:53시(UTC)에 발표되었습니다.
북동15kt
온도 28°C
습도 45%
기압 1020 hPa
시정: 16.1km
맑음

METAR: KMLB 151953Z 04015KT 10SM CLR 28/15 A3011 RMK AO2 PK WND 02026/1934 SLP197 T02780150

시각: 16:18 (20:18 UTC)

예보

예보는 2 시간 43분 전, 17:35시(UTC)에 발표되었습니다.
예보 대상 시간: 15일 18시부터 16일 18시까지 (UTC)
북동17kt, 순간 최대 풍속 24kt
시정: 10km
고도 5000ft 상공 구름 보통
16일 0300시부터 (UTC)
동북동12kt
시정: 10km
고도 5000ft 상공 구름 조금
16일 1500시부터 (UTC)
동북동14kt, 순간 최대 풍속 20kt
시정: 10km
고도 5000ft 상공 구름 보통

TAF: KMLB 151735Z 1518/1618 04017G24KT P6SM SCT050 FM160300 06012KT P6SM FEW050 FM161500 06014G20KT P6SM SCT050

4,000개 이상의 공항 관측 자료 및 예보 (METAR 및 TAF 보고).

지도상에서 검색 가능한 기상관측소가 노란 점과 빨간 점으로 표시되어 있습니다.

기상관측소 명을 보려면 표시 위로 마우스를 이동하세요.

날씨 관측과 예보를 보려면 클릭하세요.

지도 변경 : 확대하려면 엑스 표시가 있는 녹색 버튼, 축소하려면 빼기 표시가 있는 녹색 버튼, 다음 페이지의 지도를 보려면 녹색 화살표를 클릭하세요.


METAR-TAF: